sensor_id;sensor_type;location;lat;lon;timestamp;P1;durP1;ratioP1;P2;durP2;ratioP2
47433;SDS011;33184;48.774;8.918;2022-11-06T00:01:41;13.17;;;8.70;;
47433;SDS011;33184;48.774;8.918;2022-11-06T00:07:02;13.50;;;10.40;;
47433;SDS011;33184;48.774;8.918;2022-11-06T00:12:22;13.37;;;9.83;;
47433;SDS011;33184;48.774;8.918;2022-11-06T00:17:43;13.70;;;9.97;;
47433;SDS011;33184;48.774;8.918;2022-11-06T00:23:04;14.43;;;9.90;;
47433;SDS011;33184;48.774;8.918;2022-11-06T00:28:24;13.37;;;10.00;;
47433;SDS011;33184;48.774;8.918;2022-11-06T00:33:45;14.43;;;10.93;;
47433;SDS011;33184;48.774;8.918;2022-11-06T00:39:06;13.83;;;9.77;;
47433;SDS011;33184;48.774;8.918;2022-11-06T00:44:28;13.90;;;10.57;;
47433;SDS011;33184;48.774;8.918;2022-11-06T00:49:49;12.80;;;9.63;;
47433;SDS011;33184;48.774;8.918;2022-11-06T00:55:10;16.63;;;8.97;;
47433;SDS011;33184;48.774;8.918;2022-11-06T01:00:31;15.20;;;9.70;;
47433;SDS011;33184;48.774;8.918;2022-11-06T01:05:51;14.23;;;9.40;;
47433;SDS011;33184;48.774;8.918;2022-11-06T01:11:16;16.37;;;9.97;;
47433;SDS011;33184;48.774;8.918;2022-11-06T01:16:44;10.60;;;8.27;;
47433;SDS011;33184;48.774;8.918;2022-11-06T01:22:05;15.63;;;9.57;;
47433;SDS011;33184;48.774;8.918;2022-11-06T01:27:26;13.60;;;9.67;;
47433;SDS011;33184;48.774;8.918;2022-11-06T01:32:47;10.60;;;9.50;;
47433;SDS011;33184;48.774;8.918;2022-11-06T01:38:08;15.03;;;8.87;;
47433;SDS011;33184;48.774;8.918;2022-11-06T01:49:16;13.30;;;9.83;;
47433;SDS011;33184;48.774;8.918;2022-11-06T01:54:38;10.70;;;7.93;;
47433;SDS011;33184;48.774;8.918;2022-11-06T02:00:00;11.57;;;9.23;;
47433;SDS011;33184;48.774;8.918;2022-11-06T02:05:20;10.77;;;9.03;;
47433;SDS011;33184;48.774;8.918;2022-11-06T02:10:41;15.03;;;8.40;;
47433;SDS011;33184;48.774;8.918;2022-11-06T02:16:07;13.90;;;9.30;;
47433;SDS011;33184;48.774;8.918;2022-11-06T02:27:28;10.97;;;7.90;;
47433;SDS011;33184;48.774;8.918;2022-11-06T02:38:26;12.93;;;8.23;;
47433;SDS011;33184;48.774;8.918;2022-11-06T02:43:53;11.57;;;7.60;;
47433;SDS011;33184;48.774;8.918;2022-11-06T02:54:56;9.57;;;7.20;;
47433;SDS011;33184;48.774;8.918;2022-11-06T03:00:41;13.90;;;8.90;;
47433;SDS011;33184;48.774;8.918;2022-11-06T03:06:09;13.17;;;8.47;;
47433;SDS011;33184;48.774;8.918;2022-11-06T03:11:34;10.70;;;7.73;;
47433;SDS011;33184;48.774;8.918;2022-11-06T03:16:59;8.67;;;7.37;;
47433;SDS011;33184;48.774;8.918;2022-11-06T03:22:25;10.10;;;7.00;;
47433;SDS011;33184;48.774;8.918;2022-11-06T03:28:06;8.27;;;6.73;;
47433;SDS011;33184;48.774;8.918;2022-11-06T03:33:47;8.03;;;6.77;;
47433;SDS011;33184;48.774;8.918;2022-11-06T03:39:14;10.03;;;6.70;;
47433;SDS011;33184;48.774;8.918;2022-11-06T03:44:39;6.63;;;5.53;;
47433;SDS011;33184;48.774;8.918;2022-11-06T03:50:12;10.93;;;7.30;;
47433;SDS011;33184;48.774;8.918;2022-11-06T03:55:47;9.47;;;6.93;;
47433;SDS011;33184;48.774;8.918;2022-11-06T04:01:12;8.50;;;6.23;;
47433;SDS011;33184;48.774;8.918;2022-11-06T04:06:36;10.40;;;6.30;;
47433;SDS011;33184;48.774;8.918;2022-11-06T04:12:02;11.70;;;7.07;;
47433;SDS011;33184;48.774;8.918;2022-11-06T04:17:42;9.50;;;6.47;;
47433;SDS011;33184;48.774;8.918;2022-11-06T04:34:18;8.87;;;6.57;;
47433;SDS011;33184;48.774;8.918;2022-11-06T04:45:06;10.37;;;5.93;;
47433;SDS011;33184;48.774;8.918;2022-11-06T04:50:39;8.47;;;5.57;;
47433;SDS011;33184;48.774;8.918;2022-11-06T04:56:07;9.93;;;6.67;;
47433;SDS011;33184;48.774;8.918;2022-11-06T05:01:30;8.93;;;5.95;;
47433;SDS011;33184;48.774;8.918;2022-11-06T05:06:51;11.13;;;6.53;;
47433;SDS011;33184;48.774;8.918;2022-11-06T05:12:11;6.57;;;5.03;;
47433;SDS011;33184;48.774;8.918;2022-11-06T05:17:32;7.80;;;5.93;;
47433;SDS011;33184;48.774;8.918;2022-11-06T05:22:53;7.77;;;4.93;;
47433;SDS011;33184;48.774;8.918;2022-11-06T05:28:20;7.70;;;6.00;;
47433;SDS011;33184;48.774;8.918;2022-11-06T05:33:41;9.73;;;6.10;;
47433;SDS011;33184;48.774;8.918;2022-11-06T05:39:01;5.60;;;4.27;;
47433;SDS011;33184;48.774;8.918;2022-11-06T05:44:22;9.37;;;6.03;;
47433;SDS011;33184;48.774;8.918;2022-11-06T05:49:43;9.80;;;4.97;;
47433;SDS011;33184;48.774;8.918;2022-11-06T05:55:05;8.10;;;4.90;;
47433;SDS011;33184;48.774;8.918;2022-11-06T06:00:26;6.70;;;4.57;;
47433;SDS011;33184;48.774;8.918;2022-11-06T06:05:47;6.57;;;4.33;;
47433;SDS011;33184;48.774;8.918;2022-11-06T06:11:07;5.60;;;4.20;;
47433;SDS011;33184;48.774;8.918;2022-11-06T06:16:28;6.90;;;4.43;;
47433;SDS011;33184;48.774;8.918;2022-11-06T06:21:50;3.67;;;3.17;;
47433;SDS011;33184;48.774;8.918;2022-11-06T06:27:10;5.13;;;3.83;;
47433;SDS011;33184;48.774;8.918;2022-11-06T06:32:31;8.23;;;3.87;;
47433;SDS011;33184;48.774;8.918;2022-11-06T06:37:52;6.20;;;3.17;;
47433;SDS011;33184;48.774;8.918;2022-11-06T06:43:13;4.47;;;3.10;;
47433;SDS011;33184;48.774;8.918;2022-11-06T06:48:34;3.83;;;3.43;;
47433;SDS011;33184;48.774;8.918;2022-11-06T06:53:55;4.53;;;2.70;;
47433;SDS011;33184;48.774;8.918;2022-11-06T06:59:15;3.57;;;2.80;;
47433;SDS011;33184;48.774;8.918;2022-11-06T07:04:36;3.40;;;3.10;;
47433;SDS011;33184;48.774;8.918;2022-11-06T07:09:56;5.17;;;3.87;;
47433;SDS011;33184;48.774;8.918;2022-11-06T07:15:17;4.17;;;3.33;;
47433;SDS011;33184;48.774;8.918;2022-11-06T07:20:37;8.97;;;5.03;;
47433;SDS011;33184;48.774;8.918;2022-11-06T07:25:58;5.80;;;4.10;;
47433;SDS011;33184;48.774;8.918;2022-11-06T07:31:19;11.50;;;6.73;;
47433;SDS011;33184;48.774;8.918;2022-11-06T07:36:40;6.90;;;5.70;;
47433;SDS011;33184;48.774;8.918;2022-11-06T07:42:00;5.80;;;4.00;;
47433;SDS011;33184;48.774;8.918;2022-11-06T07:47:30;7.13;;;4.10;;
47433;SDS011;33184;48.774;8.918;2022-11-06T07:52:51;5.30;;;3.67;;
47433;SDS011;33184;48.774;8.918;2022-11-06T07:58:12;6.00;;;4.23;;
47433;SDS011;33184;48.774;8.918;2022-11-06T08:03:33;5.20;;;3.63;;
47433;SDS011;33184;48.774;8.918;2022-11-06T08:08:53;5.93;;;3.40;;
47433;SDS011;33184;48.774;8.918;2022-11-06T08:14:14;8.47;;;3.37;;
47433;SDS011;33184;48.774;8.918;2022-11-06T08:19:35;6.33;;;4.17;;
47433;SDS011;33184;48.774;8.918;2022-11-06T08:24:56;6.30;;;3.50;;
47433;SDS011;33184;48.774;8.918;2022-11-06T08:30:16;5.03;;;3.53;;
47433;SDS011;33184;48.774;8.918;2022-11-06T08:35:37;6.83;;;3.83;;
47433;SDS011;33184;48.774;8.918;2022-11-06T08:40:57;7.10;;;4.00;;
47433;SDS011;33184;48.774;8.918;2022-11-06T08:46:18;5.23;;;3.83;;
47433;SDS011;33184;48.774;8.918;2022-11-06T08:51:38;5.07;;;3.70;;
47433;SDS011;33184;48.774;8.918;2022-11-06T08:56:59;8.80;;;4.03;;
47433;SDS011;33184;48.774;8.918;2022-11-06T09:02:19;8.37;;;4.13;;
47433;SDS011;33184;48.774;8.918;2022-11-06T09:07:40;6.73;;;4.33;;
47433;SDS011;33184;48.774;8.918;2022-11-06T09:13:01;10.17;;;9.17;;
47433;SDS011;33184;48.774;8.918;2022-11-06T09:18:21;5.07;;;4.47;;
47433;SDS011;33184;48.774;8.918;2022-11-06T09:23:42;11.10;;;10.10;;
47433;SDS011;33184;48.774;8.918;2022-11-06T09:29:05;6.43;;;5.83;;
47433;SDS011;33184;48.774;8.918;2022-11-06T09:34:25;6.40;;;4.10;;
47433;SDS011;33184;48.774;8.918;2022-11-06T09:39:46;7.40;;;3.90;;
47433;SDS011;33184;48.774;8.918;2022-11-06T09:50:29;5.57;;;3.17;;
47433;SDS011;33184;48.774;8.918;2022-11-06T09:55:55;4.77;;;3.20;;
47433;SDS011;33184;48.774;8.918;2022-11-06T10:01:18;6.73;;;3.20;;
47433;SDS011;33184;48.774;8.918;2022-11-06T10:12:26;8.80;;;3.60;;
47433;SDS011;33184;48.774;8.918;2022-11-06T10:18:00;5.27;;;3.40;;
47433;SDS011;33184;48.774;8.918;2022-11-06T10:29:01;3.83;;;2.87;;
47433;SDS011;33184;48.774;8.918;2022-11-06T10:34:45;3.60;;;2.80;;
47433;SDS011;33184;48.774;8.918;2022-11-06T10:40:18;2.63;;;2.30;;
47433;SDS011;33184;48.774;8.918;2022-11-06T10:45:43;3.20;;;2.90;;
47433;SDS011;33184;48.774;8.918;2022-11-06T11:02:20;3.43;;;2.60;;
47433;SDS011;33184;48.774;8.918;2022-11-06T11:07:52;2.77;;;2.47;;
47433;SDS011;33184;48.774;8.918;2022-11-06T11:13:18;4.10;;;2.30;;
47433;SDS011;33184;48.774;8.918;2022-11-06T11:18:39;2.30;;;2.10;;
47433;SDS011;33184;48.774;8.918;2022-11-06T11:24:12;3.30;;;1.60;;
47433;SDS011;33184;48.774;8.918;2022-11-06T11:29:39;3.10;;;1.90;;
47433;SDS011;33184;48.774;8.918;2022-11-06T11:35:06;2.20;;;1.90;;
47433;SDS011;33184;48.774;8.918;2022-11-06T11:51:28;1.90;;;1.60;;
47433;SDS011;33184;48.774;8.918;2022-11-06T11:56:53;1.77;;;1.13;;
47433;SDS011;33184;48.774;8.918;2022-11-06T12:02:20;1.30;;;0.85;;
47433;SDS011;33184;48.774;8.918;2022-11-06T12:07:54;2.00;;;0.97;;
47433;SDS011;33184;48.774;8.918;2022-11-06T12:13:20;0.90;;;0.73;;
47433;SDS011;33184;48.774;8.918;2022-11-06T12:18:43;1.33;;;0.85;;
47433;SDS011;33184;48.774;8.918;2022-11-06T12:35:41;1.48;;;0.93;;
47433;SDS011;33184;48.774;8.918;2022-11-06T12:41:19;1.70;;;0.80;;
47433;SDS011;33184;48.774;8.918;2022-11-06T13:09:43;0.60;;;0.60;;
47433;SDS011;33184;48.774;8.918;2022-11-06T13:15:48;1.52;;;0.82;;
47433;SDS011;33184;48.774;8.918;2022-11-06T13:21:14;0.70;;;0.70;;
47433;SDS011;33184;48.774;8.918;2022-11-06T13:26:52;1.20;;;0.50;;
47433;SDS011;33184;48.774;8.918;2022-11-06T13:32:28;1.02;;;0.63;;
47433;SDS011;33184;48.774;8.918;2022-11-06T13:37:51;1.00;;;0.80;;
47433;SDS011;33184;48.774;8.918;2022-11-06T13:43:57;1.95;;;0.77;;
47433;SDS011;33184;48.774;8.918;2022-11-06T13:49:19;0.85;;;0.75;;
47433;SDS011;33184;48.774;8.918;2022-11-06T14:06:12;2.10;;;1.00;;
47433;SDS011;33184;48.774;8.918;2022-11-06T14:11:50;0.77;;;0.75;;
47433;SDS011;33184;48.774;8.918;2022-11-06T14:22:37;2.00;;;1.15;;
47433;SDS011;33184;48.774;8.918;2022-11-06T14:39:01;1.13;;;1.00;;
47433;SDS011;33184;48.774;8.918;2022-11-06T14:44:42;1.73;;;0.98;;
47433;SDS011;33184;48.774;8.918;2022-11-06T14:50:22;2.17;;;1.15;;
47433;SDS011;33184;48.774;8.918;2022-11-06T14:55:58;0.80;;;0.80;;
47433;SDS011;33184;48.774;8.918;2022-11-06T15:01:23;1.27;;;1.10;;
47433;SDS011;33184;48.774;8.918;2022-11-06T15:06:47;0.70;;;0.70;;
47433;SDS011;33184;48.774;8.918;2022-11-06T15:12:10;1.38;;;1.08;;
47433;SDS011;33184;48.774;8.918;2022-11-06T15:17:31;1.08;;;0.98;;
47433;SDS011;33184;48.774;8.918;2022-11-06T15:22:58;2.33;;;1.00;;
47433;SDS011;33184;48.774;8.918;2022-11-06T15:28:24;2.03;;;1.00;;
47433;SDS011;33184;48.774;8.918;2022-11-06T15:39:20;1.40;;;1.30;;
47433;SDS011;33184;48.774;8.918;2022-11-06T15:45:04;2.57;;;1.83;;
47433;SDS011;33184;48.774;8.918;2022-11-06T15:50:29;1.88;;;1.55;;
47433;SDS011;33184;48.774;8.918;2022-11-06T15:55:55;3.17;;;2.10;;
47433;SDS011;33184;48.774;8.918;2022-11-06T16:01:23;2.50;;;2.05;;
47433;SDS011;33184;48.774;8.918;2022-11-06T16:06:51;2.77;;;2.10;;
47433;SDS011;33184;48.774;8.918;2022-11-06T16:12:14;2.43;;;2.07;;
47433;SDS011;33184;48.774;8.918;2022-11-06T16:17:36;3.93;;;3.00;;
47433;SDS011;33184;48.774;8.918;2022-11-06T16:23:01;3.40;;;3.10;;
47433;SDS011;33184;48.774;8.918;2022-11-06T16:28:23;3.83;;;3.00;;
47433;SDS011;33184;48.774;8.918;2022-11-06T16:33:58;3.47;;;3.17;;
47433;SDS011;33184;48.774;8.918;2022-11-06T16:44:50;3.70;;;3.20;;
47433;SDS011;33184;48.774;8.918;2022-11-06T16:50:41;4.43;;;3.90;;
47433;SDS011;33184;48.774;8.918;2022-11-06T16:56:09;4.20;;;3.73;;
47433;SDS011;33184;48.774;8.918;2022-11-06T17:01:40;4.13;;;3.43;;
47433;SDS011;33184;48.774;8.918;2022-11-06T17:07:03;5.10;;;3.70;;
47433;SDS011;33184;48.774;8.918;2022-11-06T17:12:24;3.67;;;3.37;;
47433;SDS011;33184;48.774;8.918;2022-11-06T17:17:44;5.10;;;4.53;;
47433;SDS011;33184;48.774;8.918;2022-11-06T17:23:08;8.73;;;5.67;;
47433;SDS011;33184;48.774;8.918;2022-11-06T17:28:29;5.93;;;4.90;;
47433;SDS011;33184;48.774;8.918;2022-11-06T17:33:50;6.57;;;5.97;;
47433;SDS011;33184;48.774;8.918;2022-11-06T17:39:11;9.63;;;7.07;;
47433;SDS011;33184;48.774;8.918;2022-11-06T17:44:31;6.23;;;4.37;;
47433;SDS011;33184;48.774;8.918;2022-11-06T17:49:52;5.20;;;4.07;;
47433;SDS011;33184;48.774;8.918;2022-11-06T17:55:12;4.73;;;4.10;;
47433;SDS011;33184;48.774;8.918;2022-11-06T18:00:33;6.83;;;5.60;;
47433;SDS011;33184;48.774;8.918;2022-11-06T18:05:55;5.90;;;4.63;;
47433;SDS011;33184;48.774;8.918;2022-11-06T18:11:15;6.40;;;4.63;;
47433;SDS011;33184;48.774;8.918;2022-11-06T18:16:37;6.50;;;5.33;;
47433;SDS011;33184;48.774;8.918;2022-11-06T18:21:59;5.53;;;3.97;;
47433;SDS011;33184;48.774;8.918;2022-11-06T18:27:20;5.90;;;4.40;;
47433;SDS011;33184;48.774;8.918;2022-11-06T18:32:40;5.20;;;3.80;;
47433;SDS011;33184;48.774;8.918;2022-11-06T18:38:01;5.27;;;3.67;;
47433;SDS011;33184;48.774;8.918;2022-11-06T18:43:22;5.10;;;3.47;;
47433;SDS011;33184;48.774;8.918;2022-11-06T18:48:42;8.93;;;8.10;;
47433;SDS011;33184;48.774;8.918;2022-11-06T18:54:04;3.17;;;2.73;;
47433;SDS011;33184;48.774;8.918;2022-11-06T18:59:27;4.60;;;2.87;;
47433;SDS011;33184;48.774;8.918;2022-11-06T19:04:48;2.13;;;1.90;;
47433;SDS011;33184;48.774;8.918;2022-11-06T19:10:08;3.60;;;2.03;;
47433;SDS011;33184;48.774;8.918;2022-11-06T19:15:31;3.70;;;2.03;;
47433;SDS011;33184;48.774;8.918;2022-11-06T19:20:52;2.60;;;1.80;;
47433;SDS011;33184;48.774;8.918;2022-11-06T19:26:14;2.77;;;2.53;;
47433;SDS011;33184;48.774;8.918;2022-11-06T19:31:36;3.33;;;2.33;;
47433;SDS011;33184;48.774;8.918;2022-11-06T19:36:56;3.23;;;2.70;;
47433;SDS011;33184;48.774;8.918;2022-11-06T19:42:17;2.57;;;1.87;;
47433;SDS011;33184;48.774;8.918;2022-11-06T19:47:38;2.63;;;1.90;;
47433;SDS011;33184;48.774;8.918;2022-11-06T19:52:59;2.10;;;1.90;;
47433;SDS011;33184;48.774;8.918;2022-11-06T19:58:19;2.43;;;1.70;;
47433;SDS011;33184;48.774;8.918;2022-11-06T20:03:41;2.87;;;2.63;;
47433;SDS011;33184;48.774;8.918;2022-11-06T20:09:02;2.60;;;2.00;;
47433;SDS011;33184;48.774;8.918;2022-11-06T20:14:22;2.47;;;1.90;;
47433;SDS011;33184;48.774;8.918;2022-11-06T20:19:43;3.50;;;1.30;;
47433;SDS011;33184;48.774;8.918;2022-11-06T20:25:04;1.50;;;1.20;;
47433;SDS011;33184;48.774;8.918;2022-11-06T20:30:25;2.50;;;1.40;;
47433;SDS011;33184;48.774;8.918;2022-11-06T20:35:45;2.57;;;1.10;;
47433;SDS011;33184;48.774;8.918;2022-11-06T20:41:06;1.60;;;1.10;;
47433;SDS011;33184;48.774;8.918;2022-11-06T20:46:26;4.37;;;2.57;;
47433;SDS011;33184;48.774;8.918;2022-11-06T20:51:47;2.37;;;1.50;;
47433;SDS011;33184;48.774;8.918;2022-11-06T20:57:08;1.53;;;1.30;;
47433;SDS011;33184;48.774;8.918;2022-11-06T21:02:28;0.80;;;0.70;;
47433;SDS011;33184;48.774;8.918;2022-11-06T21:07:49;0.57;;;0.53;;
47433;SDS011;33184;48.774;8.918;2022-11-06T21:13:09;1.73;;;0.70;;
47433;SDS011;33184;48.774;8.918;2022-11-06T21:18:30;0.70;;;0.60;;
47433;SDS011;33184;48.774;8.918;2022-11-06T21:23:51;0.90;;;0.70;;
47433;SDS011;33184;48.774;8.918;2022-11-06T21:29:12;1.27;;;0.60;;
47433;SDS011;33184;48.774;8.918;2022-11-06T21:34:33;0.97;;;0.50;;
47433;SDS011;33184;48.774;8.918;2022-11-06T21:39:53;2.20;;;0.67;;
47433;SDS011;33184;48.774;8.918;2022-11-06T21:45:14;0.97;;;0.50;;
47433;SDS011;33184;48.774;8.918;2022-11-06T21:50:34;1.13;;;0.60;;
47433;SDS011;33184;48.774;8.918;2022-11-06T21:55:55;0.87;;;0.63;;
47433;SDS011;33184;48.774;8.918;2022-11-06T22:01:18;1.30;;;0.90;;
47433;SDS011;33184;48.774;8.918;2022-11-06T22:06:40;1.20;;;0.60;;
47433;SDS011;33184;48.774;8.918;2022-11-06T22:12:01;0.73;;;0.60;;
47433;SDS011;33184;48.774;8.918;2022-11-06T22:17:22;1.80;;;0.80;;
47433;SDS011;33184;48.774;8.918;2022-11-06T22:22:42;1.07;;;0.63;;
47433;SDS011;33184;48.774;8.918;2022-11-06T22:28:04;0.70;;;0.70;;
47433;SDS011;33184;48.774;8.918;2022-11-06T22:33:24;1.53;;;0.60;;
47433;SDS011;33184;48.774;8.918;2022-11-06T22:38:46;1.33;;;0.70;;
47433;SDS011;33184;48.774;8.918;2022-11-06T22:44:07;0.70;;;0.67;;
47433;SDS011;33184;48.774;8.918;2022-11-06T22:49:28;0.77;;;0.70;;
47433;SDS011;33184;48.774;8.918;2022-11-06T22:54:49;0.90;;;0.57;;
47433;SDS011;33184;48.774;8.918;2022-11-06T23:00:09;1.03;;;0.50;;
47433;SDS011;33184;48.774;8.918;2022-11-06T23:05:30;3.00;;;0.53;;
47433;SDS011;33184;48.774;8.918;2022-11-06T23:10:51;2.20;;;0.50;;
47433;SDS011;33184;48.774;8.918;2022-11-06T23:16:17;2.03;;;0.47;;
47433;SDS011;33184;48.774;8.918;2022-11-06T23:21:59;2.00;;;0.50;;
47433;SDS011;33184;48.774;8.918;2022-11-06T23:27:39;0.70;;;0.50;;
47433;SDS011;33184;48.774;8.918;2022-11-06T23:33:01;0.60;;;0.43;;
47433;SDS011;33184;48.774;8.918;2022-11-06T23:38:21;1.20;;;0.60;;
47433;SDS011;33184;48.774;8.918;2022-11-06T23:43:42;1.37;;;0.50;;
47433;SDS011;33184;48.774;8.918;2022-11-06T23:49:02;0.60;;;0.50;;
47433;SDS011;33184;48.774;8.918;2022-11-06T23:54:23;0.80;;;0.50;;
47433;SDS011;33184;48.774;8.918;2022-11-06T23:59:44;0.80;;;0.60;;
